Time;durP1;ratioP1;P1;durP2;ratioP2;P2;SDS_P1;SDS_P2;PMS_P1;PMS_P2;Temp;Humidity;BMP_temperature;BMP_pressure;BME280_temperature;BME280_humidity;BME280_pressure;Samples;Min_cycle;Max_cycle;Signal;HPM_P1;HPM_P2
2023/03/03 00:00:39;;;;;;;;;;;;;;;21.51;25.98;98169.34;5041002;28;1933;-78
2023/03/03 00:03:05;;;;;;;;;;;;;;;21.85;25.70;98166.06;4993367;28;941;-78
2023/03/03 00:05:32;;;;;;;;;;;;;;;21.82;25.74;98167.75;5016967;28;1094;-79
2023/03/03 00:07:58;;;;;;;;;;;;;;;22.00;25.51;98167.28;5033426;28;1019;-79
2023/03/03 00:10:24;;;;;;;;;;;;;;;21.63;25.90;98156.50;5033357;28;1002;-78
2023/03/03 00:12:49;;;;;;;;;;;;;;;21.41;26.03;98164.72;5048518;28;1838;-78
2023/03/03 00:15:19;;;;;;;;;;;;;;;21.86;25.59;98164.81;5049853;28;839;-78
2023/03/03 00:17:44;;;;;;;;;;;;;;;21.90;25.59;98161.91;5052836;28;958;-78
2023/03/03 00:20:28;;;;;;;;;;;;;;;21.92;25.30;98150.94;5036745;28;1030;-78
2023/03/03 00:22:54;;;;;;;;;;;;;;;22.04;25.09;98151.00;5036101;28;1689;-78
2023/03/03 00:25:20;;;;;;;;;;;;;;;21.84;25.43;98151.09;5020321;28;1030;-79
2023/03/03 00:27:45;;;;;;;;;;;;;;;21.69;25.48;98149.88;5036151;28;961;-79
2023/03/03 00:30:19;;;;;;;;;;;;;;;21.23;26.63;98137.56;5037750;28;888;-79
2023/03/03 00:32:51;;;;;;;;;;;;;;;21.95;25.59;98139.50;5052297;28;1640;-78
2023/03/03 00:35:24;;;;;;;;;;;;;;;21.96;25.56;98143.13;5019945;28;1243;-78
2023/03/03 00:37:53;;;;;;;;;;;;;;;21.89;25.35;98135.59;5029434;28;2000;-78
2023/03/03 00:40:35;;;;;;;;;;;;;;;22.19;25.15;98133.66;5036271;28;908;-78
2023/03/03 00:43:01;;;;;;;;;;;;;;;21.74;25.47;98138.00;5052244;28;1340;-78
2023/03/03 00:45:45;;;;;;;;;;;;;;;21.50;25.86;98133.75;5036408;28;1037;-78
2023/03/03 00:48:21;;;;;;;;;;;;;;;21.44;26.09;98130.63;5022155;28;1139;-78
2023/03/03 00:50:47;;;;;;;;;;;;;;;21.59;26.15;98129.06;5070442;28;1654;-78
2023/03/03 00:53:13;;;;;;;;;;;;;;;21.91;25.53;98123.81;5074221;28;937;-78
2023/03/03 00:55:39;;;;;;;;;;;;;;;21.97;25.58;98120.03;5057774;28;1272;-78
2023/03/03 00:58:05;;;;;;;;;;;;;;;22.03;25.27;98123.13;5056298;28;1977;-78
2023/03/03 01:00:35;;;;;;;;;;;;;;;21.74;25.79;98121.00;5052092;28;1710;-78
2023/03/03 01:03:05;;;;;;;;;;;;;;;21.53;25.91;98115.88;5052548;28;1270;-78
2023/03/03 01:05:31;;;;;;;;;;;;;;;21.61;26.03;98111.66;5053063;28;1093;-79
2023/03/03 01:07:57;;;;;;;;;;;;;;;21.64;25.94;98112.78;5052523;28;1217;-79
2023/03/03 01:10:22;;;;;;;;;;;;;;;21.97;25.31;98105.06;5054337;28;1527;-78
2023/03/03 01:12:48;;;;;;;;;;;;;;;22.06;25.28;98096.72;5075262;28;1865;-78
2023/03/03 01:15:14;;;;;;;;;;;;;;;21.69;25.64;98101.72;5059629;28;930;-79
2023/03/03 01:17:40;;;;;;;;;;;;;;;21.53;25.99;98102.53;5059711;28;1054;-78
2023/03/03 01:20:06;;;;;;;;;;;;;;;21.64;26.20;98099.41;5043001;28;1997;-78
2023/03/03 01:22:32;;;;;;;;;;;;;;;22.02;25.29;98096.00;5058515;28;1854;-79
2023/03/03 01:24:58;;;;;;;;;;;;;;;22.04;25.46;98088.66;5075261;28;1741;-78
2023/03/03 01:27:23;;;;;;;;;;;;;;;21.94;25.32;98088.94;5059810;28;1346;-78
2023/03/03 01:29:49;;;;;;;;;;;;;;;21.57;25.84;98082.63;5073804;28;1253;-78
2023/03/03 01:32:14;;;;;;;;;;;;;;;21.54;25.67;98083.50;5060592;28;1673;-79
2023/03/03 01:34:40;;;;;;;;;;;;;;;21.41;25.96;98085.47;5057368;28;1216;-78
2023/03/03 01:37:06;;;;;;;;;;;;;;;21.65;25.75;98084.00;5074145;28;1342;-79
2023/03/03 01:39:31;;;;;;;;;;;;;;;21.78;25.51;98075.63;5074040;28;1982;-78
2023/03/03 01:41:57;;;;;;;;;;;;;;;22.01;25.22;98080.25;5092725;28;1755;-79
2023/03/03 01:44:23;;;;;;;;;;;;;;;22.12;25.17;98069.44;5094636;28;1228;-79
2023/03/03 01:46:56;;;;;;;;;;;;;;;21.55;25.90;98073.75;5093949;28;1169;-78
2023/03/03 01:49:42;;;;;;;;;;;;;;;21.45;25.92;98072.00;5094111;28;1158;-78
2023/03/03 01:52:31;;;;;;;;;;;;;;;21.44;25.99;98073.22;5061644;28;1661;-78
2023/03/03 01:54:58;;;;;;;;;;;;;;;21.74;25.59;98070.03;5032488;28;1155;-79
2023/03/03 01:57:25;;;;;;;;;;;;;;;21.83;25.38;98070.19;5032301;28;951;-78
2023/03/03 01:59:51;;;;;;;;;;;;;;;22.03;25.23;98057.94;5012189;28;1993;-78
2023/03/03 02:02:17;;;;;;;;;;;;;;;21.62;25.64;98062.25;5028339;28;1793;-78
2023/03/03 02:04:43;;;;;;;;;;;;;;;21.33;26.38;98065.78;5012605;28;1132;-78
2023/03/03 02:07:09;;;;;;;;;;;;;;;21.62;25.77;98061.47;5012393;28;1140;-78
2023/03/03 02:09:54;;;;;;;;;;;;;;;21.85;25.32;98058.41;5012127;28;1996;-78
2023/03/03 02:12:20;;;;;;;;;;;;;;;21.84;25.80;98068.97;4995907;28;916;-78
2023/03/03 02:14:45;;;;;;;;;;;;;;;22.21;25.22;98069.59;5012332;28;923;-78
2023/03/03 02:17:11;;;;;;;;;;;;;;;21.69;25.39;98067.72;5012498;28;948;-78
2023/03/03 02:19:37;;;;;;;;;;;;;;;21.51;25.77;98073.06;5011685;28;1911;-79
2023/03/03 02:22:02;;;;;;;;;;;;;;;21.42;26.17;98075.72;4995892;28;1221;-78
2023/03/03 02:24:37;;;;;;;;;;;;;;;21.64;26.04;98067.47;4995359;28;958;-78
2023/03/03 02:27:03;;;;;;;;;;;;;;;21.89;25.41;98069.66;4995731;28;1112;-79
2023/03/03 02:29:29;;;;;;;;;;;;;;;22.00;25.16;98064.50;4995094;28;1793;-79
2023/03/03 02:31:56;;;;;;;;;;;;;;;21.46;25.81;98067.94;5021422;28;1463;-79
2023/03/03 02:34:21;;;;;;;;;;;;;;;21.54;25.63;98061.63;5015313;28;1649;-78
2023/03/03 02:36:47;;;;;;;;;;;;;;;21.62;25.67;98059.44;4999072;28;1141;-78
2023/03/03 02:39:18;;;;;;;;;;;;;;;21.73;25.83;98062.78;5002228;28;1918;-79
2023/03/03 02:41:44;;;;;;;;;;;;;;;21.88;25.31;98056.75;5038592;28;1209;-78
2023/03/03 02:44:17;;;;;;;;;;;;;;;22.11;25.11;98065.03;5073117;28;1202;-78
2023/03/03 02:46:44;;;;;;;;;;;;;;;21.93;24.91;98059.84;5091485;28;1199;-78
2023/03/03 02:49:10;;;;;;;;;;;;;;;21.77;25.56;98051.38;5059729;28;1825;-78
2023/03/03 02:51:36;;;;;;;;;;;;;;;21.69;25.71;98056.41;5094493;28;1211;-79
2023/03/03 02:54:01;;;;;;;;;;;;;;;21.84;25.53;98057.63;5094512;28;893;-78
2023/03/03 02:56:29;;;;;;;;;;;;;;;22.05;25.08;98061.91;5061653;28;1079;-79
2023/03/03 02:58:55;;;;;;;;;;;;;;;21.91;25.52;98062.28;5060144;28;1918;-79
2023/03/03 03:01:20;;;;;;;;;;;;;;;21.72;25.29;98061.19;5060912;28;1499;-78
2023/03/03 03:03:47;;;;;;;;;;;;;;;21.67;25.49;98053.22;5078240;28;1272;-78
2023/03/03 03:06:17;;;;;;;;;;;;;;;21.42;25.81;98058.72;5077515;28;1204;-78
2023/03/03 03:08:42;;;;;;;;;;;;;;;21.77;25.43;98046.50;5077419;28;960;-78
2023/03/03 03:11:08;;;;;;;;;;;;;;;21.98;25.17;98050.78;5058556;28;1811;-78
2023/03/03 03:13:33;;;;;;;;;;;;;;;22.01;25.23;98057.59;5057508;28;1098;-79
2023/03/03 03:15:59;;;;;;;;;;;;;;;21.79;25.29;98049.66;5057549;28;1222;-79
2023/03/03 03:18:25;;;;;;;;;;;;;;;21.45;26.09;98047.34;5058391;28;1909;-78
2023/03/03 03:20:53;;;;;;;;;;;;;;;21.28;26.21;98052.16;5037102;28;1820;-79
2023/03/03 03:23:20;;;;;;;;;;;;;;;21.68;25.85;98042.69;5057246;28;815;-78
2023/03/03 03:25:47;;;;;;;;;;;;;;;21.91;25.61;98050.97;5054836;28;1318;-79
2023/03/03 03:28:19;;;;;;;;;;;;;;;21.97;25.32;98051.25;5056035;28;1364;-78
2023/03/03 03:30:45;;;;;;;;;;;;;;;21.88;25.45;98051.06;5054922;28;1893;-78
2023/03/03 03:33:11;;;;;;;;;;;;;;;21.68;25.72;98049.16;5055182;28;1227;-78
2023/03/03 03:35:37;;;;;;;;;;;;;;;21.63;25.65;98052.53;5054443;28;1131;-78
2023/03/03 03:38:03;;;;;;;;;;;;;;;21.59;25.74;98046.16;5050447;28;1902;-79
2023/03/03 03:40:29;;;;;;;;;;;;;;;22.01;25.07;98038.53;5036932;28;1815;-78
2023/03/03 03:42:54;;;;;;;;;;;;;;;22.00;25.21;98045.47;5037068;28;1144;-79
2023/03/03 03:45:21;;;;;;;;;;;;;;;22.04;25.21;98039.69;5053572;28;1174;-78
2023/03/03 03:47:47;;;;;;;;;;;;;;;21.55;25.79;98037.78;5019434;28;1762;-78
2023/03/03 03:50:14;;;;;;;;;;;;;;;21.43;26.24;98032.00;5034610;28;1887;-79
2023/03/03 03:52:42;;;;;;;;;;;;;;;21.44;26.13;98033.59;5037384;28;1117;-78
2023/03/03 03:55:08;;;;;;;;;;;;;;;21.77;25.84;98034.38;5037242;28;1259;-79
2023/03/03 03:57:36;;;;;;;;;;;;;;;22.07;25.07;98030.28;5053554;28;1192;-78
2023/03/03 04:00:01;;;;;;;;;;;;;;;21.95;25.13;98028.22;5034446;28;1995;-78
2023/03/03 04:02:28;;;;;;;;;;;;;;;21.52;25.91;98026.53;5047825;28;1393;-78
2023/03/03 04:04:53;;;;;;;;;;;;;;;21.40;25.87;98030.06;5037037;28;1088;-78
2023/03/03 04:07:19;;;;;;;;;;;;;;;21.65;25.72;98021.72;5036811;28;1180;-78
2023/03/03 04:09:45;;;;;;;;;;;;;;;22.02;25.46;98028.00;5032422;28;1750;-78
2023/03/03 04:12:11;;;;;;;;;;;;;;;21.97;25.28;98031.41;5033848;28;1205;-78
2023/03/03 04:14:37;;;;;;;;;;;;;;;22.06;24.96;98026.66;5053253;28;1117;-79
2023/03/03 04:17:03;;;;;;;;;;;;;;;21.66;25.51;98023.34;5054845;28;1230;-79
2023/03/03 04:19:29;;;;;;;;;;;;;;;21.77;25.75;98012.50;5042519;28;1910;-78
2023/03/03 04:21:55;;;;;;;;;;;;;;;21.66;25.61;98017.66;5090351;28;1684;-78
2023/03/03 04:24:21;;;;;;;;;;;;;;;21.78;25.45;98022.59;5073799;28;1780;-79
2023/03/03 04:26:49;;;;;;;;;;;;;;;21.95;25.39;98022.53;5089507;28;1324;-79
2023/03/03 04:29:15;;;;;;;;;;;;;;;21.97;25.48;98011.59;5071675;28;1866;-79
2023/03/03 04:31:42;;;;;;;;;;;;;;;22.01;25.31;98015.88;5053609;28;1122;-79
2023/03/03 04:34:09;;;;;;;;;;;;;;;21.70;25.55;98007.03;5069606;28;1292;-79
2023/03/03 04:36:34;;;;;;;;;;;;;;;21.60;25.81;98010.94;5053253;28;947;-79
2023/03/03 04:39:00;;;;;;;;;;;;;;;21.83;25.38;98010.72;5069533;28;1914;-79
2023/03/03 04:41:26;;;;;;;;;;;;;;;22.16;24.85;98010.63;5069034;28;1658;-78
2023/03/03 04:43:52;;;;;;;;;;;;;;;22.00;25.37;98013.50;5033340;28;1135;-78
2023/03/03 04:46:18;;;;;;;;;;;;;;;22.18;24.84;98007.38;5001517;28;1077;-79
2023/03/03 04:48:43;;;;;;;;;;;;;;;21.73;25.71;98017.47;5004205;28;1251;-78
2023/03/03 04:51:10;;;;;;;;;;;;;;;21.51;25.78;98013.63;5035913;28;1695;-78
2023/03/03 04:53:37;;;;;;;;;;;;;;;21.41;26.15;98012.66;5040082;28;1107;-78
2023/03/03 04:56:04;;;;;;;;;;;;;;;21.85;25.32;98013.09;5041020;28;1237;-78
2023/03/03 04:58:30;;;;;;;;;;;;;;;21.94;25.19;98015.28;5056584;28;1914;-79
2023/03/03 05:00:56;;;;;;;;;;;;;;;21.76;25.50;98010.94;5010676;28;1440;-79
2023/03/03 05:03:23;;;;;;;;;;;;;;;21.64;25.74;98020.13;5043139;28;933;-78
2023/03/03 05:05:49;;;;;;;;;;;;;;;21.43;25.86;98017.88;5059712;28;1275;-79
2023/03/03 05:08:15;;;;;;;;;;;;;;;21.30;26.11;98023.44;5059879;28;1068;-79
2023/03/03 05:10:40;;;;;;;;;;;;;;;21.88;25.39;98014.25;5059828;28;1130;-78
2023/03/03 05:13:07;;;;;;;;;;;;;;;21.98;25.12;98022.47;5043323;28;1212;-78
2023/03/03 05:15:32;;;;;;;;;;;;;;;22.08;25.02;98012.06;5075308;28;1018;-79
2023/03/03 05:17:58;;;;;;;;;;;;;;;22.00;25.20;98025.63;5096691;28;1901;-78
2023/03/03 05:20:23;;;;;;;;;;;;;;;21.59;25.65;98021.47;5063281;28;859;-79
2023/03/03 05:22:49;;;;;;;;;;;;;;;21.58;25.54;98027.56;5079385;28;1264;-79
2023/03/03 05:25:15;;;;;;;;;;;;;;;21.66;25.79;98026.16;5096692;28;907;-79
2023/03/03 05:27:40;;;;;;;;;;;;;;;21.94;25.26;98026.63;5009847;28;1237;-79
2023/03/03 05:30:06;;;;;;;;;;;;;;;21.92;25.49;98029.13;5016451;28;1423;-79
2023/03/03 05:32:32;;;;;;;;;;;;;;;22.15;25.23;98036.59;5000239;28;1142;-79
2023/03/03 05:34:57;;;;;;;;;;;;;;;21.70;25.40;98032.50;5033272;28;880;-79
2023/03/03 05:37:23;;;;;;;;;;;;;;;21.61;25.90;98038.03;5016419;28;1198;-79
2023/03/03 05:39:49;;;;;;;;;;;;;;;21.61;25.81;98035.19;5033077;28;1969;-79
2023/03/03 05:42:14;;;;;;;;;;;;;;;21.83;25.50;98038.25;5019419;28;1200;-79
2023/03/03 05:44:40;;;;;;;;;;;;;;;21.92;25.59;98038.41;5019485;28;1240;-79
2023/03/03 05:47:05;;;;;;;;;;;;;;;22.21;24.83;98029.94;5019557;28;1076;-79
2023/03/03 05:49:31;;;;;;;;;;;;;;;21.85;25.56;98033.72;4999542;28;1013;-80
2023/03/03 05:51:58;;;;;;;;;;;;;;;21.71;25.61;98034.13;5016243;28;938;-79
2023/03/03 05:54:23;;;;;;;;;;;;;;;21.40;26.03;98047.03;4999449;28;1032;-79
2023/03/03 05:56:49;;;;;;;;;;;;;;;21.90;25.38;98031.59;5016331;28;944;-80
2023/03/03 05:59:14;;;;;;;;;;;;;;;21.92;25.39;98041.25;5029930;28;1985;-79
2023/03/03 06:01:40;;;;;;;;;;;;;;;22.08;25.21;98044.03;5035872;28;1244;-79
2023/03/03 06:04:05;;;;;;;;;;;;;;;21.67;25.47;98041.91;5035494;28;1133;-80
2023/03/03 06:06:31;;;;;;;;;;;;;;;21.76;25.34;98033.59;5035350;28;1225;-80
2023/03/03 06:08:57;;;;;;;;;;;;;;;21.73;25.53;98031.63;5035466;28;964;-79
2023/03/03 06:11:22;;;;;;;;;;;;;;;21.85;25.40;98028.06;5051824;28;1058;-79
2023/03/03 06:13:48;;;;;;;;;;;;;;;22.16;25.08;98038.19;5027469;28;1062;-80
2023/03/03 06:16:13;;;;;;;;;;;;;;;22.14;24.86;98038.63;5055567;28;927;-79
2023/03/03 06:18:39;;;;;;;;;;;;;;;21.64;25.47;98036.34;5055491;28;1963;-79
2023/03/03 06:21:05;;;;;;;;;;;;;;;21.66;25.63;98029.00;5056992;28;1049;-79
2023/03/03 06:23:30;;;;;;;;;;;;;;;21.45;25.83;98024.69;5073180;28;1133;-79
2023/03/03 06:25:56;;;;;;;;;;;;;;;21.92;25.30;98029.13;5089616;28;926;-80
2023/03/03 06:28:23;;;;;;;;;;;;;;;22.02;24.97;98031.66;5072639;28;1068;-78
2023/03/03 06:30:52;;;;;;;;;;;;;;;22.02;25.19;98039.34;5089122;28;820;-79
2023/03/03 06:33:17;;;;;;;;;;;;;;;21.54;25.65;98030.50;5089357;28;938;-79
2023/03/03 06:35:43;;;;;;;;;;;;;;;21.31;26.08;98031.50;5089737;28;1001;-79
2023/03/03 06:38:08;;;;;;;;;;;;;;;21.53;25.91;98037.41;5057158;28;1968;-79
2023/03/03 06:40:34;;;;;;;;;;;;;;;21.82;25.34;98031.78;5054080;28;1027;-79
2023/03/03 06:43:02;;;;;;;;;;;;;;;22.04;24.99;98031.19;5021515;28;1218;-79
2023/03/03 06:45:27;;;;;;;;;;;;;;;22.07;25.13;98041.63;5038323;28;968;-80
2023/03/03 06:47:53;;;;;;;;;;;;;;;21.65;25.47;98038.72;5038123;28;954;-79
2023/03/03 06:50:19;;;;;;;;;;;;;;;21.63;25.50;98041.19;5037612;28;868;-79
2023/03/03 06:52:44;;;;;;;;;;;;;;;21.46;25.86;98043.25;5048502;28;1198;-79
2023/03/03 06:55:16;;;;;;;;;;;;;;;21.81;25.61;98044.38;5048649;28;1217;-79
2023/03/03 06:57:42;;;;;;;;;;;;;;;21.96;25.39;98046.78;5025066;28;1167;-79
2023/03/03 07:00:14;;;;;;;;;;;;;;;22.05;24.93;98044.13;5014640;28;1918;-80
2023/03/03 07:02:40;;;;;;;;;;;;;;;21.69;25.48;98039.41;5014978;28;1196;-79
2023/03/03 07:05:06;;;;;;;;;;;;;;;21.68;25.47;98037.84;4998176;28;927;-79
2023/03/03 07:07:32;;;;;;;;;;;;;;;21.44;26.10;98047.75;4998191;28;1054;-80
2023/03/03 07:09:58;;;;;;;;;;;;;;;21.61;25.76;98040.84;4998110;28;943;-79
2023/03/03 07:12:28;;;;;;;;;;;;;;;21.81;25.30;98041.53;4998273;28;893;-79
2023/03/03 07:15:12;;;;;;;;;;;;;;;22.09;24.95;98033.50;4982205;28;1132;-79
2023/03/03 07:17:42;;;;;;;;;;;;;;;21.61;25.47;98032.38;5021599;28;859;-79
2023/03/03 07:20:18;;;;;;;;;;;;;;;21.57;25.88;98037.31;5034211;28;1984;-79
2023/03/03 07:22:43;;;;;;;;;;;;;;;21.38;26.03;98035.38;5034087;28;1005;-79
2023/03/03 07:25:17;;;;;;;;;;;;;;;21.76;25.39;98030.75;5034305;28;961;-79
2023/03/03 07:27:43;;;;;;;;;;;;;;;22.02;25.11;98039.34;5017882;28;985;-79
2023/03/03 07:30:11;;;;;;;;;;;;;;;22.26;24.65;98028.59;5033945;28;984;-79
2023/03/03 07:32:43;;;;;;;;;;;;;;;21.77;25.23;98023.84;5018748;28;922;-79
2023/03/03 07:35:27;;;;;;;;;;;;;;;21.55;25.68;98026.44;5053414;28;942;-79
2023/03/03 07:37:52;;;;;;;;;;;;;;;21.80;25.61;98022.94;5054137;28;888;-79
2023/03/03 07:40:28;;;;;;;;;;;;;;;22.05;25.33;98033.56;5070546;28;1906;-79
2023/03/03 07:42:53;;;;;;;;;;;;;;;22.02;25.26;98025.16;5070495;28;892;-79
2023/03/03 07:45:26;;;;;;;;;;;;;;;22.18;24.84;98030.03;5070417;28;1243;-79
2023/03/03 07:47:53;;;;;;;;;;;;;;;21.69;25.35;98022.44;5053766;28;1363;-79
2023/03/03 07:50:20;;;;;;;;;;;;;;;21.68;25.46;98020.84;5070239;28;1055;-79
2023/03/03 07:52:55;;;;;;;;;;;;;;;21.35;25.85;98019.28;5053028;28;972;-80
2023/03/03 07:55:21;;;;;;;;;;;;;;;21.85;25.25;98019.56;5069992;28;1004;-79
2023/03/03 07:57:46;;;;;;;;;;;;;;;21.98;25.00;98016.78;5053227;28;877;-79
2023/03/03 08:00:17;;;;;;;;;;;;;;;21.95;25.00;98014.03;5069607;28;1902;-79
2023/03/03 08:02:44;;;;;;;;;;;;;;;22.29;24.55;98005.03;5070166;28;1121;-78
2023/03/03 08:05:28;;;;;;;;;;;;;;;22.13;25.18;98010.75;5070306;28;1084;-78
2023/03/03 08:07:56;;;;;;;;;;;;;;;21.57;25.70;97997.69;5070764;28;1266;-79
2023/03/03 08:10:29;;;;;;;;;;;;;;;21.50;25.98;98010.00;5071066;28;1170;-79
2023/03/03 08:12:55;;;;;;;;;;;;;;;21.31;26.05;98008.84;5071533;28;1217;-79
2023/03/03 08:15:22;;;;;;;;;;;;;;;21.61;25.53;98004.06;5071150;28;1209;-79
2023/03/03 08:17:47;;;;;;;;;;;;;;;21.83;25.22;98005.06;5071229;28;918;-79
2023/03/03 08:20:32;;;;;;;;;;;;;;;21.99;25.07;98006.25;5087483;28;1984;-79
2023/03/03 08:22:57;;;;;;;;;;;;;;;21.67;25.45;97996.59;5055074;28;870;-79
2023/03/03 08:25:23;;;;;;;;;;;;;;;21.47;26.08;98007.25;5053984;28;919;-79
2023/03/03 08:27:49;;;;;;;;;;;;;;;21.64;25.89;98000.31;5087728;28;862;-79
2023/03/03 08:30:14;;;;;;;;;;;;;;;21.81;25.24;98001.88;5087516;28;919;-79
2023/03/03 08:32:40;;;;;;;;;;;;;;;21.97;24.99;97998.22;5088025;28;928;-79
2023/03/03 08:35:05;;;;;;;;;;;;;;;22.03;25.08;98009.78;5062191;28;1288;-79
2023/03/03 08:37:31;;;;;;;;;;;;;;;21.87;25.02;97993.63;5074040;28;1232;-79
2023/03/03 08:39:57;;;;;;;;;;;;;;;21.78;25.33;98002.75;5074328;28;1991;-79
2023/03/03 08:42:22;;;;;;;;;;;;;;;21.64;25.73;98008.00;5107568;28;948;-79
2023/03/03 08:44:48;;;;;;;;;;;;;;;21.87;25.31;98009.84;5108489;28;1015;-79
2023/03/03 08:47:13;;;;;;;;;;;;;;;22.02;24.89;98016.66;5096463;28;1126;-79
2023/03/03 08:49:39;;;;;;;;;;;;;;;22.05;24.81;98002.41;5096536;28;1121;-79
2023/03/03 08:52:04;;;;;;;;;;;;;;;21.96;25.12;98007.13;5096450;28;932;-79
2023/03/03 08:54:30;;;;;;;;;;;;;;;21.56;25.56;98001.75;5113552;28;931;-79
2023/03/03 08:56:56;;;;;;;;;;;;;;;21.51;25.75;98002.28;5096549;28;958;-79
2023/03/03 08:59:22;;;;;;;;;;;;;;;21.89;25.47;98004.50;5075773;28;1977;-79
2023/03/03 09:01:47;;;;;;;;;;;;;;;22.07;25.26;97990.63;5095155;28;1142;-78
2023/03/03 09:04:13;;;;;;;;;;;;;;;21.97;25.28;97997.41;5084586;28;1315;-79
2023/03/03 09:06:38;;;;;;;;;;;;;;;21.75;25.44;97997.97;5059560;28;1194;-78
2023/03/03 09:09:04;;;;;;;;;;;;;;;21.89;25.32;98002.47;5035921;28;1206;-78
2023/03/03 09:11:31;;;;;;;;;;;;;;;21.65;25.63;97993.41;5024151;28;1273;-79
2023/03/03 09:14:06;;;;;;;;;;;;;;;21.84;25.35;97995.31;5036098;28;897;-79
2023/03/03 09:16:33;;;;;;;;;;;;;;;21.88;25.47;97995.22;5002686;28;1209;-79
2023/03/03 09:19:00;;;;;;;;;;;;;;;21.83;25.16;97988.06;5003099;28;1977;-77
2023/03/03 09:21:31;;;;;;;;;;;;;;;21.70;25.45;97990.03;5016167;28;1207;-79
2023/03/03 09:24:00;;;;;;;;;;;;;;;21.54;25.67;97984.41;5016657;28;989;-79
2023/03/03 09:26:40;;;;;;;;;;;;;;;21.76;25.37;97982.59;5015971;28;964;-78
2023/03/03 09:29:10;;;;;;;;;;;;;;;21.73;25.42;97977.81;5032530;28;1389;-79
2023/03/03 09:31:39;;;;;;;;;;;;;;;22.13;25.11;97971.09;5015910;28;948;-79
2023/03/03 09:34:21;;;;;;;;;;;;;;;22.02;25.14;97972.16;5018175;28;1035;-79
2023/03/03 09:36:48;;;;;;;;;;;;;;;21.50;25.54;97966.72;5039308;28;1024;-79
2023/03/03 09:39:24;;;;;;;;;;;;;;;21.58;25.70;97965.28;5041086;28;1887;-79
2023/03/03 09:41:49;;;;;;;;;;;;;;;21.71;25.66;97968.16;5057073;28;888;-79
2023/03/03 09:44:37;;;;;;;;;;;;;;;22.04;25.13;97966.03;5073572;28;1446;-79
2023/03/03 09:47:14;;;;;;;;;;;;;;;21.89;25.19;97962.81;5040593;28;1231;-79
2023/03/03 09:49:50;;;;;;;;;;;;;;;21.62;25.55;97966.00;5058309;28;1214;-79
2023/03/03 09:52:18;;;;;;;;;;;;;;;21.53;25.52;97963.00;5057990;28;861;-79
2023/03/03 09:54:51;;;;;;;;;;;;;;;21.57;25.46;97958.03;5075788;28;1255;-79
2023/03/03 09:57:19;;;;;;;;;;;;;;;21.54;25.62;97953.25;5075975;28;939;-79
2023/03/03 09:59:51;;;;;;;;;;;;;;;21.75;25.30;97954.72;5075461;28;1969;-79
2023/03/03 10:02:45;;;;;;;;;;;;;;;21.86;25.20;97952.38;5075509;28;924;-79
2023/03/03 10:05:17;;;;;;;;;;;;;;;21.62;25.49;97942.56;5055301;28;1053;-79
2023/03/03 10:07:46;;;;;;;;;;;;;;;21.47;25.71;97936.47;5038893;28;1618;-79
2023/03/03 10:10:27;;;;;;;;;;;;;;;21.49;25.75;97933.97;5039052;28;897;-79
2023/03/03 10:13:05;;;;;;;;;;;;;;;21.87;25.13;97925.66;5022366;28;1194;-79
2023/03/03 10:15:46;;;;;;;;;;;;;;;21.90;25.35;97935.28;5038223;28;1943;-79
2023/03/03 10:18:18;;;;;;;;;;;;;;;22.18;24.98;97923.16;5046042;28;2011;-79
2023/03/03 10:20:47;;;;;;;;;;;;;;;21.84;25.34;97916.00;5028920;28;1247;-80
2023/03/03 10:23:19;;;;;;;;;;;;;;;21.64;25.30;97921.03;5046558;28;1375;-79
2023/03/03 10:25:52;;;;;;;;;;;;;;;21.51;25.67;97920.19;5036579;28;1268;-80
2023/03/03 10:28:18;;;;;;;;;;;;;;;21.63;25.41;97913.78;5037035;28;1431;-79
2023/03/03 10:30:43;;;;;;;;;;;;;;;21.71;25.54;97912.34;5044082;28;1246;-79
2023/03/03 10:33:11;;;;;;;;;;;;;;;21.91;25.45;97914.19;5059167;28;1316;-78
2023/03/03 10:35:37;;;;;;;;;;;;;;;21.90;25.14;97906.94;5037929;28;1285;-78
2023/03/03 10:38:15;;;;;;;;;;;;;;;21.68;25.39;97907.56;5038163;28;938;-78
2023/03/03 10:40:44;;;;;;;;;;;;;;;21.34;25.92;97908.09;4989846;28;1097;-79
2023/03/03 10:43:29;;;;;;;;;;;;;;;21.66;25.75;97910.06;5051065;28;934;-79
2023/03/03 10:46:05;;;;;;;;;;;;;;;21.93;25.31;97900.41;5034760;28;854;-78
2023/03/03 10:48:45;;;;;;;;;;;;;;;22.07;24.93;97897.13;5051502;28;888;-79
2023/03/03 10:51:30;;;;;;;;;;;;;;;22.05;24.95;97893.94;5034880;28;1000;-78
2023/03/03 10:54:02;;;;;;;;;;;;;;;21.63;25.70;97898.84;5053923;28;1269;-78
2023/03/03 10:56:46;;;;;;;;;;;;;;;21.59;25.63;97887.59;5071084;28;1042;-78
2023/03/03 10:59:17;;;;;;;;;;;;;;;21.90;25.52;97895.63;5054088;28;1942;-78
2023/03/03 11:01:44;;;;;;;;;;;;;;;21.99;25.31;97887.25;5054823;28;1199;-79
2023/03/03 11:04:12;;;;;;;;;;;;;;;21.93;25.16;97877.72;5054243;28;889;-78
2023/03/03 11:06:38;;;;;;;;;;;;;;;22.02;25.04;97870.16;5054236;28;1162;-78
2023/03/03 11:09:15;;;;;;;;;;;;;;;21.79;25.14;97874.06;5054031;28;1028;-78
2023/03/03 11:11:40;;;;;;;;;;;;;;;21.63;25.53;97859.97;5074093;28;930;-78
2023/03/03 11:14:06;;;;;;;;;;;;;;;21.50;25.64;97851.47;5094503;28;1019;-78
2023/03/03 11:16:47;;;;;;;;;;;;;;;21.90;25.50;97850.28;5077497;28;1156;-78
2023/03/03 11:19:29;;;;;;;;;;;;;;;21.85;25.31;97849.59;5077344;28;1977;-78
2023/03/03 11:21:57;;;;;;;;;;;;;;;22.07;24.89;97841.28;5077142;28;1033;-78
2023/03/03 11:24:38;;;;;;;;;;;;;;;21.61;25.49;97837.00;5083371;28;1068;-78
2023/03/03 11:27:03;;;;;;;;;;;;;;;21.51;25.90;97830.41;5054847;28;915;-78
2023/03/03 11:29:33;;;;;;;;;;;;;;;21.63;25.52;97820.34;5055207;28;1130;-78
2023/03/03 11:32:07;;;;;;;;;;;;;;;21.94;25.31;97817.00;5057075;28;1238;-78
2023/03/03 11:34:42;;;;;;;;;;;;;;;22.14;24.89;97820.44;5056915;28;963;-78
2023/03/03 11:37:09;;;;;;;;;;;;;;;22.07;24.99;97823.44;5040399;28;1261;-78
2023/03/03 11:39:35;;;;;;;;;;;;;;;21.66;25.28;97825.13;5056840;28;1906;-78
2023/03/03 11:42:16;;;;;;;;;;;;;;;21.56;25.84;97812.06;5023981;28;1250;-78
2023/03/03 11:44:45;;;;;;;;;;;;;;;21.90;25.40;97814.25;5053462;28;915;-78
2023/03/03 11:47:10;;;;;;;;;;;;;;;21.93;25.24;97810.53;5013720;28;1002;-79
2023/03/03 11:49:40;;;;;;;;;;;;;;;22.16;24.96;97814.31;4997764;28;1239;-79
2023/03/03 11:52:24;;;;;;;;;;;;;;;22.08;24.85;97817.34;4997180;28;953;-78
2023/03/03 11:54:51;;;;;;;;;;;;;;;21.53;25.70;97810.13;5013599;28;881;-78
2023/03/03 11:57:26;;;;;;;;;;;;;;;21.42;26.03;97803.97;4980648;28;1218;-79
2023/03/03 11:59:54;;;;;;;;;;;;;;;21.58;25.49;97795.41;4958489;28;1914;-79
2023/03/03 12:02:23;;;;;;;;;;;;;;;21.78;25.52;97804.50;4933855;29;1061;-79
2023/03/03 12:05:05;;;;;;;;;;;;;;;21.78;25.38;97809.38;4936051;29;947;-78
2023/03/03 12:07:40;;;;;;;;;;;;;;;21.90;25.01;97800.09;4951929;28;1186;-78
2023/03/03 12:10:08;;;;;;;;;;;;;;;21.35;25.99;97815.50;4935884;29;992;-78
2023/03/03 12:12:40;;;;;;;;;;;;;;;21.31;25.76;97810.75;4936175;29;1276;-78
2023/03/03 12:15:18;;;;;;;;;;;;;;;21.72;25.53;97802.69;4945682;28;1226;-79
2023/03/03 12:18:03;;;;;;;;;;;;;;;21.94;25.13;97795.13;4986949;28;1034;-78
2023/03/03 12:20:34;;;;;;;;;;;;;;;21.99;25.00;97799.44;4997114;28;1918;-79
2023/03/03 12:23:15;;;;;;;;;;;;;;;21.74;25.25;97798.16;4997290;28;1166;-79
2023/03/03 12:25:58;;;;;;;;;;;;;;;21.64;25.48;97792.81;5013364;28;944;-79
2023/03/03 12:28:31;;;;;;;;;;;;;;;21.43;25.61;97795.03;4996995;28;1008;-79
2023/03/03 12:31:03;;;;;;;;;;;;;;;22.04;25.06;97793.19;5019145;28;1253;-79
2023/03/03 12:33:51;;;;;;;;;;;;;;;21.95;25.08;97807.25;5071220;28;963;-79
2023/03/03 12:36:20;;;;;;;;;;;;;;;21.98;24.98;97795.03;5053958;28;899;-79
2023/03/03 12:38:49;;;;;;;;;;;;;;;21.74;25.25;97797.38;5054572;28;1959;-79
2023/03/03 12:41:30;;;;;;;;;;;;;;;21.64;25.61;97798.47;5055011;28;849;-79
2023/03/03 12:44:02;;;;;;;;;;;;;;;21.51;25.52;97806.97;5071306;28;1056;-79
2023/03/03 12:46:46;;;;;;;;;;;;;;;21.85;25.34;97806.31;5055122;28;911;-79
2023/03/03 12:49:12;;;;;;;;;;;;;;;21.93;24.98;97799.22;5055107;28;868;-79
2023/03/03 12:52:01;;;;;;;;;;;;;;;22.15;24.77;97793.69;5070457;28;842;-79
2023/03/03 12:54:32;;;;;;;;;;;;;;;22.21;24.97;97791.06;5054235;28;1074;-79
2023/03/03 12:57:04;;;;;;;;;;;;;;;21.67;25.59;97792.72;5070663;28;956;-79
2023/03/03 12:59:36;;;;;;;;;;;;;;;21.46;25.72;97794.16;5055322;28;1910;-79
2023/03/03 13:02:20;;;;;;;;;;;;;;;21.63;25.61;97794.84;5070597;28;965;-79
2023/03/03 13:04:49;;;;;;;;;;;;;;;21.93;25.18;97798.41;5055295;28;909;-79
2023/03/03 13:07:33;;;;;;;;;;;;;;;21.95;25.13;97801.56;5056273;28;1181;-79
2023/03/03 13:10:20;;;;;;;;;;;;;;;21.67;25.66;97792.72;5057550;28;877;-79